sensor_id;sensor_type;location;lat;lon;timestamp;P1;P2;P0
69123;PMS5003;56232;53.384;-2.732;2023-12-28T00:00:34;4;3;
69123;PMS5003;56232;53.384;-2.732;2023-12-28T00:03:00;13;6;
69123;PMS5003;56232;53.384;-2.732;2023-12-28T00:05:26;9;7;
69123;PMS5003;56232;53.384;-2.732;2023-12-28T00:07:51;7;5;
69123;PMS5003;56232;53.384;-2.732;2023-12-28T00:10:17;5;4;
69123;PMS5003;56232;53.384;-2.732;2023-12-28T00:12:43;6;5;
69123;PMS5003;56232;53.384;-2.732;2023-12-28T00:15:08;9;6;
69123;PMS5003;56232;53.384;-2.732;2023-12-28T00:17:33;9;7;
69123;PMS5003;56232;53.384;-2.732;2023-12-28T00:19:59;7;5;
69123;PMS5003;56232;53.384;-2.732;2023-12-28T00:22:24;6;6;
69123;PMS5003;56232;53.384;-2.732;2023-12-28T00:24:50;7;4;
69123;PMS5003;56232;53.384;-2.732;2023-12-28T00:27:16;4;4;
69123;PMS5003;56232;53.384;-2.732;2023-12-28T00:29:41;12;7;
69123;PMS5003;56232;53.384;-2.732;2023-12-28T00:32:06;13;8;
69123;PMS5003;56232;53.384;-2.732;2023-12-28T00:34:31;6;4;
69123;PMS5003;56232;53.384;-2.732;2023-12-28T00:36:57;7;5;
69123;PMS5003;56232;53.384;-2.732;2023-12-28T00:39:23;12;6;
69123;PMS5003;56232;53.384;-2.732;2023-12-28T00:41:48;7;6;
69123;PMS5003;56232;53.384;-2.732;2023-12-28T00:44:13;10;5;
69123;PMS5003;56232;53.384;-2.732;2023-12-28T00:46:38;6;5;
69123;PMS5003;56232;53.384;-2.732;2023-12-28T00:49:04;9;8;
69123;PMS5003;56232;53.384;-2.732;2023-12-28T00:51:29;6;5;
69123;PMS5003;56232;53.384;-2.732;2023-12-28T00:53:55;14;6;
69123;PMS5003;56232;53.384;-2.732;2023-12-28T00:56:20;4;4;
69123;PMS5003;56232;53.384;-2.732;2023-12-28T00:58:45;8;7;
69123;PMS5003;56232;53.384;-2.732;2023-12-28T01:01:11;7;6;
69123;PMS5003;56232;53.384;-2.732;2023-12-28T01:03:36;5;4;
69123;PMS5003;56232;53.384;-2.732;2023-12-28T01:06:02;11;8;
69123;PMS5003;56232;53.384;-2.732;2023-12-28T01:08:27;12;6;
69123;PMS5003;56232;53.384;-2.732;2023-12-28T01:10:53;10;5;
69123;PMS5003;56232;53.384;-2.732;2023-12-28T01:13:18;8;6;
69123;PMS5003;56232;53.384;-2.732;2023-12-28T01:15:44;9;7;
69123;PMS5003;56232;53.384;-2.732;2023-12-28T01:18:08;10;8;
69123;PMS5003;56232;53.384;-2.732;2023-12-28T01:20:33;12;6;
69123;PMS5003;56232;53.384;-2.732;2023-12-28T01:22:59;7;5;
69123;PMS5003;56232;53.384;-2.732;2023-12-28T01:25:24;8;6;
69123;PMS5003;56232;53.384;-2.732;2023-12-28T01:27:49;7;6;
69123;PMS5003;56232;53.384;-2.732;2023-12-28T01:30:15;10;7;
69123;PMS5003;56232;53.384;-2.732;2023-12-28T01:32:40;16;11;
69123;PMS5003;56232;53.384;-2.732;2023-12-28T01:35:05;15;9;
69123;PMS5003;56232;53.384;-2.732;2023-12-28T01:37:31;10;6;
69123;PMS5003;56232;53.384;-2.732;2023-12-28T01:39:56;7;5;
69123;PMS5003;56232;53.384;-2.732;2023-12-28T01:42:21;7;6;
69123;PMS5003;56232;53.384;-2.732;2023-12-28T01:44:47;12;8;
69123;PMS5003;56232;53.384;-2.732;2023-12-28T01:47:12;7;5;
69123;PMS5003;56232;53.384;-2.732;2023-12-28T01:49:37;13;10;
69123;PMS5003;56232;53.384;-2.732;2023-12-28T01:52:02;6;5;
69123;PMS5003;56232;53.384;-2.732;2023-12-28T01:54:27;10;7;
69123;PMS5003;56232;53.384;-2.732;2023-12-28T01:56:52;10;5;
69123;PMS5003;56232;53.384;-2.732;2023-12-28T01:59:18;11;9;
69123;PMS5003;56232;53.384;-2.732;2023-12-28T02:01:44;11;9;
69123;PMS5003;56232;53.384;-2.732;2023-12-28T02:04:09;9;7;
69123;PMS5003;56232;53.384;-2.732;2023-12-28T02:06:34;6;5;
69123;PMS5003;56232;53.384;-2.732;2023-12-28T02:09:00;9;6;
69123;PMS5003;56232;53.384;-2.732;2023-12-28T02:11:25;11;8;
69123;PMS5003;56232;53.384;-2.732;2023-12-28T02:13:51;8;6;
69123;PMS5003;56232;53.384;-2.732;2023-12-28T02:16:18;14;8;
69123;PMS5003;56232;53.384;-2.732;2023-12-28T02:18:43;9;5;
69123;PMS5003;56232;53.384;-2.732;2023-12-28T02:21:07;10;6;
69123;PMS5003;56232;53.384;-2.732;2023-12-28T02:23:33;8;7;
69123;PMS5003;56232;53.384;-2.732;2023-12-28T02:25:59;16;9;
69123;PMS5003;56232;53.384;-2.732;2023-12-28T02:28:24;12;7;
69123;PMS5003;56232;53.384;-2.732;2023-12-28T02:30:49;14;9;
69123;PMS5003;56232;53.384;-2.732;2023-12-28T02:33:17;6;6;
69123;PMS5003;56232;53.384;-2.732;2023-12-28T02:35:42;9;7;
69123;PMS5003;56232;53.384;-2.732;2023-12-28T02:38:07;11;7;
69123;PMS5003;56232;53.384;-2.732;2023-12-28T02:40:32;9;5;
69123;PMS5003;56232;53.384;-2.732;2023-12-28T02:42:57;8;6;
69123;PMS5003;56232;53.384;-2.732;2023-12-28T02:45:22;8;5;
69123;PMS5003;56232;53.384;-2.732;2023-12-28T02:47:47;4;4;
69123;PMS5003;56232;53.384;-2.732;2023-12-28T02:50:13;5;3;
69123;PMS5003;56232;53.384;-2.732;2023-12-28T02:52:38;6;4;
69123;PMS5003;56232;53.384;-2.732;2023-12-28T02:55:04;5;4;
69123;PMS5003;56232;53.384;-2.732;2023-12-28T02:57:30;4;3;
69123;PMS5003;56232;53.384;-2.732;2023-12-28T02:59:55;8;4;
69123;PMS5003;56232;53.384;-2.732;2023-12-28T03:02:21;5;4;
69123;PMS5003;56232;53.384;-2.732;2023-12-28T03:04:46;2;2;
69123;PMS5003;56232;53.384;-2.732;2023-12-28T03:07:12;1;1;
69123;PMS5003;56232;53.384;-2.732;2023-12-28T03:09:38;6;5;
69123;PMS5003;56232;53.384;-2.732;2023-12-28T03:12:03;8;4;
69123;PMS5003;56232;53.384;-2.732;2023-12-28T03:14:28;5;4;
69123;PMS5003;56232;53.384;-2.732;2023-12-28T03:16:54;5;3;
69123;PMS5003;56232;53.384;-2.732;2023-12-28T03:19:20;5;5;
69123;PMS5003;56232;53.384;-2.732;2023-12-28T03:21:45;5;4;
69123;PMS5003;56232;53.384;-2.732;2023-12-28T03:24:11;2;2;
69123;PMS5003;56232;53.384;-2.732;2023-12-28T03:36:18;4;3;
69123;PMS5003;56232;53.384;-2.732;2023-12-28T03:38:44;4;2;
69123;PMS5003;56232;53.384;-2.732;2023-12-28T03:43:35;6;3;
69123;PMS5003;56232;53.384;-2.732;2023-12-28T03:46:01;4;3;
69123;PMS5003;56232;53.384;-2.732;2023-12-28T03:48:26;3;3;
69123;PMS5003;56232;53.384;-2.732;2023-12-28T03:50:52;4;4;
69123;PMS5003;56232;53.384;-2.732;2023-12-28T03:53:18;2;2;
69123;PMS5003;56232;53.384;-2.732;2023-12-28T03:55:44;2;1;
69123;PMS5003;56232;53.384;-2.732;2023-12-28T03:58:09;3;2;
69123;PMS5003;56232;53.384;-2.732;2023-12-28T04:00:35;4;3;
69123;PMS5003;56232;53.384;-2.732;2023-12-28T04:03:00;6;2;
69123;PMS5003;56232;53.384;-2.732;2023-12-28T04:05:26;4;3;
69123;PMS5003;56232;53.384;-2.732;2023-12-28T04:07:52;4;3;
69123;PMS5003;56232;53.384;-2.732;2023-12-28T04:10:27;4;1;
69123;PMS5003;56232;53.384;-2.732;2023-12-28T04:12:44;5;5;
69123;PMS5003;56232;53.384;-2.732;2023-12-28T04:15:09;1;1;
69123;PMS5003;56232;53.384;-2.732;2023-12-28T04:17:35;4;3;
69123;PMS5003;56232;53.384;-2.732;2023-12-28T04:20:00;4;2;
69123;PMS5003;56232;53.384;-2.732;2023-12-28T04:22:26;2;2;
69123;PMS5003;56232;53.384;-2.732;2023-12-28T04:24:51;5;3;
69123;PMS5003;56232;53.384;-2.732;2023-12-28T04:27:16;9;2;
69123;PMS5003;56232;53.384;-2.732;2023-12-28T04:29:42;4;3;
69123;PMS5003;56232;53.384;-2.732;2023-12-28T04:32:07;7;4;
69123;PMS5003;56232;53.384;-2.732;2023-12-28T04:34:32;3;3;
69123;PMS5003;56232;53.384;-2.732;2023-12-28T04:36:58;4;4;
69123;PMS5003;56232;53.384;-2.732;2023-12-28T04:39:23;6;5;
69123;PMS5003;56232;53.384;-2.732;2023-12-28T04:41:49;3;2;
69123;PMS5003;56232;53.384;-2.732;2023-12-28T04:44:14;5;5;
69123;PMS5003;56232;53.384;-2.732;2023-12-28T04:46:40;3;3;
69123;PMS5003;56232;53.384;-2.732;2023-12-28T04:49:06;3;2;
69123;PMS5003;56232;53.384;-2.732;2023-12-28T04:51:32;5;4;
69123;PMS5003;56232;53.384;-2.732;2023-12-28T04:53:57;1;1;
69123;PMS5003;56232;53.384;-2.732;2023-12-28T04:56:23;4;2;
69123;PMS5003;56232;53.384;-2.732;2023-12-28T04:58:49;4;3;
69123;PMS5003;56232;53.384;-2.732;2023-12-28T05:01:14;6;3;
69123;PMS5003;56232;53.384;-2.732;2023-12-28T05:03:40;2;1;
69123;PMS5003;56232;53.384;-2.732;2023-12-28T05:06:05;2;2;
69123;PMS5003;56232;53.384;-2.732;2023-12-28T05:08:30;9;6;
69123;PMS5003;56232;53.384;-2.732;2023-12-28T05:10:55;3;3;
69123;PMS5003;56232;53.384;-2.732;2023-12-28T05:13:21;4;4;
69123;PMS5003;56232;53.384;-2.732;2023-12-28T05:15:46;1;1;
69123;PMS5003;56232;53.384;-2.732;2023-12-28T05:18:11;10;4;
69123;PMS5003;56232;53.384;-2.732;2023-12-28T05:20:37;7;4;
69123;PMS5003;56232;53.384;-2.732;2023-12-28T05:23:03;3;3;
69123;PMS5003;56232;53.384;-2.732;2023-12-28T05:25:29;2;1;
69123;PMS5003;56232;53.384;-2.732;2023-12-28T05:27:54;3;2;
69123;PMS5003;56232;53.384;-2.732;2023-12-28T05:30:20;3;3;
69123;PMS5003;56232;53.384;-2.732;2023-12-28T05:32:46;3;3;
69123;PMS5003;56232;53.384;-2.732;2023-12-28T05:35:11;2;2;
69123;PMS5003;56232;53.384;-2.732;2023-12-28T05:37:37;2;2;
69123;PMS5003;56232;53.384;-2.732;2023-12-28T05:40:03;3;1;
69123;PMS5003;56232;53.384;-2.732;2023-12-28T05:42:28;3;2;
69123;PMS5003;56232;53.384;-2.732;2023-12-28T05:44:54;2;2;
69123;PMS5003;56232;53.384;-2.732;2023-12-28T05:47:19;2;1;
69123;PMS5003;56232;53.384;-2.732;2023-12-28T05:49:45;5;2;
69123;PMS5003;56232;53.384;-2.732;2023-12-28T05:52:10;10;7;
69123;PMS5003;56232;53.384;-2.732;2023-12-28T05:54:36;1;0;
69123;PMS5003;56232;53.384;-2.732;2023-12-28T05:57:02;2;2;
69123;PMS5003;56232;53.384;-2.732;2023-12-28T05:59:27;3;1;
69123;PMS5003;56232;53.384;-2.732;2023-12-28T06:01:53;2;1;
69123;PMS5003;56232;53.384;-2.732;2023-12-28T06:04:19;4;3;
69123;PMS5003;56232;53.384;-2.732;2023-12-28T06:06:45;4;2;
69123;PMS5003;56232;53.384;-2.732;2023-12-28T06:09:10;5;2;
69123;PMS5003;56232;53.384;-2.732;2023-12-28T06:11:35;2;1;
69123;PMS5003;56232;53.384;-2.732;2023-12-28T06:14:01;3;2;
69123;PMS5003;56232;53.384;-2.732;2023-12-28T06:16:26;4;2;
69123;PMS5003;56232;53.384;-2.732;2023-12-28T06:18:52;10;6;
69123;PMS5003;56232;53.384;-2.732;2023-12-28T06:21:17;4;2;
69123;PMS5003;56232;53.384;-2.732;2023-12-28T06:23:43;4;2;
69123;PMS5003;56232;53.384;-2.732;2023-12-28T06:26:09;3;2;
69123;PMS5003;56232;53.384;-2.732;2023-12-28T06:28:34;5;3;
69123;PMS5003;56232;53.384;-2.732;2023-12-28T06:31:00;5;3;
69123;PMS5003;56232;53.384;-2.732;2023-12-28T06:33:26;2;2;
69123;PMS5003;56232;53.384;-2.732;2023-12-28T06:35:51;3;2;
69123;PMS5003;56232;53.384;-2.732;2023-12-28T06:38:16;3;3;
69123;PMS5003;56232;53.384;-2.732;2023-12-28T06:40:42;7;6;
69123;PMS5003;56232;53.384;-2.732;2023-12-28T06:43:07;3;2;
69123;PMS5003;56232;53.384;-2.732;2023-12-28T06:45:33;5;3;
69123;PMS5003;56232;53.384;-2.732;2023-12-28T06:47:58;6;5;
69123;PMS5003;56232;53.384;-2.732;2023-12-28T06:50:23;6;5;
69123;PMS5003;56232;53.384;-2.732;2023-12-28T06:52:49;7;4;
69123;PMS5003;56232;53.384;-2.732;2023-12-28T06:55:15;4;4;
69123;PMS5003;56232;53.384;-2.732;2023-12-28T06:57:40;7;5;
69123;PMS5003;56232;53.384;-2.732;2023-12-28T07:00:06;7;4;
69123;PMS5003;56232;53.384;-2.732;2023-12-28T07:02:31;7;6;
69123;PMS5003;56232;53.384;-2.732;2023-12-28T07:04:56;5;4;
69123;PMS5003;56232;53.384;-2.732;2023-12-28T07:07:22;4;3;
69123;PMS5003;56232;53.384;-2.732;2023-12-28T07:09:47;4;4;
69123;PMS5003;56232;53.384;-2.732;2023-12-28T07:12:13;2;2;
69123;PMS5003;56232;53.384;-2.732;2023-12-28T07:14:39;4;3;
69123;PMS5003;56232;53.384;-2.732;2023-12-28T07:17:04;3;3;
69123;PMS5003;56232;53.384;-2.732;2023-12-28T07:19:30;9;5;
69123;PMS5003;56232;53.384;-2.732;2023-12-28T07:21:56;5;4;
69123;PMS5003;56232;53.384;-2.732;2023-12-28T07:24:21;2;2;
69123;PMS5003;56232;53.384;-2.732;2023-12-28T07:26:47;6;4;
69123;PMS5003;56232;53.384;-2.732;2023-12-28T07:29:12;8;5;
69123;PMS5003;56232;53.384;-2.732;2023-12-28T07:31:37;5;3;
69123;PMS5003;56232;53.384;-2.732;2023-12-28T07:34:03;7;4;
69123;PMS5003;56232;53.384;-2.732;2023-12-28T07:36:28;3;3;
69123;PMS5003;56232;53.384;-2.732;2023-12-28T07:38:54;6;3;
69123;PMS5003;56232;53.384;-2.732;2023-12-28T07:41:20;6;3;
69123;PMS5003;56232;53.384;-2.732;2023-12-28T07:43:45;4;2;
69123;PMS5003;56232;53.384;-2.732;2023-12-28T07:46:16;3;2;
69123;PMS5003;56232;53.384;-2.732;2023-12-28T07:48:36;0;0;
69123;PMS5003;56232;53.384;-2.732;2023-12-28T07:51:03;3;2;
69123;PMS5003;56232;53.384;-2.732;2023-12-28T07:53:28;1;1;
69123;PMS5003;56232;53.384;-2.732;2023-12-28T07:55:53;0;0;
69123;PMS5003;56232;53.384;-2.732;2023-12-28T07:58:18;2;2;
69123;PMS5003;56232;53.384;-2.732;2023-12-28T08:00:45;3;2;
69123;PMS5003;56232;53.384;-2.732;2023-12-28T08:03:10;6;4;
69123;PMS5003;56232;53.384;-2.732;2023-12-28T08:05:35;3;2;
69123;PMS5003;56232;53.384;-2.732;2023-12-28T08:08:01;6;4;
69123;PMS5003;56232;53.384;-2.732;2023-12-28T08:10:26;10;6;
69123;PMS5003;56232;53.384;-2.732;2023-12-28T08:12:52;5;4;
69123;PMS5003;56232;53.384;-2.732;2023-12-28T08:15:18;6;5;
69123;PMS5003;56232;53.384;-2.732;2023-12-28T08:17:44;7;5;
69123;PMS5003;56232;53.384;-2.732;2023-12-28T08:20:09;9;5;
69123;PMS5003;56232;53.384;-2.732;2023-12-28T08:22:34;3;2;
69123;PMS5003;56232;53.384;-2.732;2023-12-28T08:24:59;4;3;
69123;PMS5003;56232;53.384;-2.732;2023-12-28T08:27:25;7;4;
69123;PMS5003;56232;53.384;-2.732;2023-12-28T08:29:51;6;5;
69123;PMS5003;56232;53.384;-2.732;2023-12-28T08:32:16;3;3;
69123;PMS5003;56232;53.384;-2.732;2023-12-28T08:34:42;6;4;
69123;PMS5003;56232;53.384;-2.732;2023-12-28T08:37:08;1;1;
69123;PMS5003;56232;53.384;-2.732;2023-12-28T08:39:33;5;4;
69123;PMS5003;56232;53.384;-2.732;2023-12-28T08:41:59;7;4;
69123;PMS5003;56232;53.384;-2.732;2023-12-28T08:44:25;5;3;
69123;PMS5003;56232;53.384;-2.732;2023-12-28T08:46:50;3;3;
69123;PMS5003;56232;53.384;-2.732;2023-12-28T08:49:16;2;2;
69123;PMS5003;56232;53.384;-2.732;2023-12-28T08:51:42;6;3;
69123;PMS5003;56232;53.384;-2.732;2023-12-28T08:54:07;2;2;
69123;PMS5003;56232;53.384;-2.732;2023-12-28T08:56:32;4;1;
69123;PMS5003;56232;53.384;-2.732;2023-12-28T08:58:58;2;1;
69123;PMS5003;56232;53.384;-2.732;2023-12-28T09:01:23;0;0;
69123;PMS5003;56232;53.384;-2.732;2023-12-28T09:03:49;3;2;
69123;PMS5003;56232;53.384;-2.732;2023-12-28T09:06:15;2;2;
69123;PMS5003;56232;53.384;-2.732;2023-12-28T09:08:41;3;3;
69123;PMS5003;56232;53.384;-2.732;2023-12-28T09:11:05;1;1;
69123;PMS5003;56232;53.384;-2.732;2023-12-28T09:13:31;2;1;
69123;PMS5003;56232;53.384;-2.732;2023-12-28T09:15:56;2;2;
69123;PMS5003;56232;53.384;-2.732;2023-12-28T09:18:22;4;3;
69123;PMS5003;56232;53.384;-2.732;2023-12-28T09:20:47;3;2;
69123;PMS5003;56232;53.384;-2.732;2023-12-28T09:23:13;7;3;
69123;PMS5003;56232;53.384;-2.732;2023-12-28T09:25:39;4;2;
69123;PMS5003;56232;53.384;-2.732;2023-12-28T09:28:04;3;3;
69123;PMS5003;56232;53.384;-2.732;2023-12-28T09:30:29;3;3;
69123;PMS5003;56232;53.384;-2.732;2023-12-28T09:32:55;2;2;
69123;PMS5003;56232;53.384;-2.732;2023-12-28T09:35:21;2;2;
69123;PMS5003;56232;53.384;-2.732;2023-12-28T09:37:46;6;3;
69123;PMS5003;56232;53.384;-2.732;2023-12-28T09:40:12;5;5;
69123;PMS5003;56232;53.384;-2.732;2023-12-28T09:42:40;0;0;
69123;PMS5003;56232;53.384;-2.732;2023-12-28T09:45:03;4;3;
69123;PMS5003;56232;53.384;-2.732;2023-12-28T09:47:28;4;3;
69123;PMS5003;56232;53.384;-2.732;2023-12-28T09:49:53;5;3;
69123;PMS5003;56232;53.384;-2.732;2023-12-28T09:52:19;7;4;
69123;PMS5003;56232;53.384;-2.732;2023-12-28T09:54:45;5;4;
69123;PMS5003;56232;53.384;-2.732;2023-12-28T09:57:10;10;5;
69123;PMS5003;56232;53.384;-2.732;2023-12-28T09:59:36;9;8;
69123;PMS5003;56232;53.384;-2.732;2023-12-28T10:02:01;7;6;
69123;PMS5003;56232;53.384;-2.732;2023-12-28T10:04:27;3;3;
69123;PMS5003;56232;53.384;-2.732;2023-12-28T10:06:53;6;3;
69123;PMS5003;56232;53.384;-2.732;2023-12-28T10:09:18;2;2;
69123;PMS5003;56232;53.384;-2.732;2023-12-28T10:11:44;3;2;
69123;PMS5003;56232;53.384;-2.732;2023-12-28T10:14:09;4;3;
69123;PMS5003;56232;53.384;-2.732;2023-12-28T10:16:34;3;3;
69123;PMS5003;56232;53.384;-2.732;2023-12-28T10:19:00;4;3;
69123;PMS5003;56232;53.384;-2.732;2023-12-28T10:21:26;10;6;
69123;PMS5003;56232;53.384;-2.732;2023-12-28T10:23:51;8;3;
69123;PMS5003;56232;53.384;-2.732;2023-12-28T10:26:17;4;3;
69123;PMS5003;56232;53.384;-2.732;2023-12-28T10:28:42;3;3;
69123;PMS5003;56232;53.384;-2.732;2023-12-28T10:31:08;2;2;
69123;PMS5003;56232;53.384;-2.732;2023-12-28T10:33:34;3;2;
69123;PMS5003;56232;53.384;-2.732;2023-12-28T10:35:59;2;2;
69123;PMS5003;56232;53.384;-2.732;2023-12-28T10:38:24;5;4;
69123;PMS5003;56232;53.384;-2.732;2023-12-28T10:40:50;5;3;
69123;PMS5003;56232;53.384;-2.732;2023-12-28T10:43:16;5;4;
69123;PMS5003;56232;53.384;-2.732;2023-12-28T10:45:41;4;3;
69123;PMS5003;56232;53.384;-2.732;2023-12-28T10:48:09;4;3;
69123;PMS5003;56232;53.384;-2.732;2023-12-28T10:50:38;1;1;
69123;PMS5003;56232;53.384;-2.732;2023-12-28T10:53:00;9;6;
69123;PMS5003;56232;53.384;-2.732;2023-12-28T10:55:25;3;3;
69123;PMS5003;56232;53.384;-2.732;2023-12-28T10:57:52;4;4;
69123;PMS5003;56232;53.384;-2.732;2023-12-28T11:00:16;3;2;
69123;PMS5003;56232;53.384;-2.732;2023-12-28T11:02:41;5;4;
69123;PMS5003;56232;53.384;-2.732;2023-12-28T11:05:06;2;2;
69123;PMS5003;56232;53.384;-2.732;2023-12-28T11:07:32;6;3;
69123;PMS5003;56232;53.384;-2.732;2023-12-28T11:09:57;2;2;
69123;PMS5003;56232;53.384;-2.732;2023-12-28T11:12:22;5;2;
69123;PMS5003;56232;53.384;-2.732;2023-12-28T11:14:48;5;3;
69123;PMS5003;56232;53.384;-2.732;2023-12-28T11:17:14;3;3;
69123;PMS5003;56232;53.384;-2.732;2023-12-28T11:19:39;3;3;
69123;PMS5003;56232;53.384;-2.732;2023-12-28T11:22:05;2;0;
69123;PMS5003;56232;53.384;-2.732;2023-12-28T11:24:31;3;2;
69123;PMS5003;56232;53.384;-2.732;2023-12-28T11:26:56;2;2;
69123;PMS5003;56232;53.384;-2.732;2023-12-28T11:29:22;0;0;
69123;PMS5003;56232;53.384;-2.732;2023-12-28T11:31:50;1;1;
69123;PMS5003;56232;53.384;-2.732;2023-12-28T11:34:13;3;2;
69123;PMS5003;56232;53.384;-2.732;2023-12-28T11:36:40;1;1;
69123;PMS5003;56232;53.384;-2.732;2023-12-28T11:39:05;2;1;
69123;PMS5003;56232;53.384;-2.732;2023-12-28T11:41:30;0;0;
69123;PMS5003;56232;53.384;-2.732;2023-12-28T11:43:56;2;1;
69123;PMS5003;56232;53.384;-2.732;2023-12-28T11:46:21;0;0;
69123;PMS5003;56232;53.384;-2.732;2023-12-28T11:48:47;1;1;
69123;PMS5003;56232;53.384;-2.732;2023-12-28T11:51:12;3;3;
69123;PMS5003;56232;53.384;-2.732;2023-12-28T11:53:38;4;3;
69123;PMS5003;56232;53.384;-2.732;2023-12-28T11:56:04;1;1;
69123;PMS5003;56232;53.384;-2.732;2023-12-28T11:58:29;2;1;
69123;PMS5003;56232;53.384;-2.732;2023-12-28T12:00:55;4;2;
69123;PMS5003;56232;53.384;-2.732;2023-12-28T12:03:20;4;4;
69123;PMS5003;56232;53.384;-2.732;2023-12-28T12:05:46;5;3;
69123;PMS5003;56232;53.384;-2.732;2023-12-28T12:08:12;2;2;
69123;PMS5003;56232;53.384;-2.732;2023-12-28T12:10:37;6;6;
69123;PMS5003;56232;53.384;-2.732;2023-12-28T12:13:03;3;2;
69123;PMS5003;56232;53.384;-2.732;2023-12-28T12:15:29;3;2;
69123;PMS5003;56232;53.384;-2.732;2023-12-28T12:17:54;2;2;
69123;PMS5003;56232;53.384;-2.732;2023-12-28T12:20:20;3;2;
69123;PMS5003;56232;53.384;-2.732;2023-12-28T12:22:46;5;4;
69123;PMS5003;56232;53.384;-2.732;2023-12-28T12:25:11;5;2;
69123;PMS5003;56232;53.384;-2.732;2023-12-28T12:27:36;2;2;
69123;PMS5003;56232;53.384;-2.732;2023-12-28T12:30:02;3;2;
69123;PMS5003;56232;53.384;-2.732;2023-12-28T12:32:28;0;0;
69123;PMS5003;56232;53.384;-2.732;2023-12-28T12:34:53;10;6;
69123;PMS5003;56232;53.384;-2.732;2023-12-28T12:37:18;2;1;
69123;PMS5003;56232;53.384;-2.732;2023-12-28T12:39:44;3;3;
69123;PMS5003;56232;53.384;-2.732;2023-12-28T12:42:12;3;3;
69123;PMS5003;56232;53.384;-2.732;2023-12-28T12:44:35;3;2;
69123;PMS5003;56232;53.384;-2.732;2023-12-28T12:47:00;3;3;
69123;PMS5003;56232;53.384;-2.732;2023-12-28T12:49:26;2;2;
69123;PMS5003;56232;53.384;-2.732;2023-12-28T12:51:52;3;2;
69123;PMS5003;56232;53.384;-2.732;2023-12-28T12:54:17;1;1;
69123;PMS5003;56232;53.384;-2.732;2023-12-28T12:56:43;2;1;
69123;PMS5003;56232;53.384;-2.732;2023-12-28T12:59:08;2;1;
69123;PMS5003;56232;53.384;-2.732;2023-12-28T13:01:34;0;0;
69123;PMS5003;56232;53.384;-2.732;2023-12-28T13:04:00;1;0;
69123;PMS5003;56232;53.384;-2.732;2023-12-28T13:06:25;4;1;
69123;PMS5003;56232;53.384;-2.732;2023-12-28T13:08:51;1;1;
69123;PMS5003;56232;53.384;-2.732;2023-12-28T13:11:16;1;1;
69123;PMS5003;56232;53.384;-2.732;2023-12-28T13:13:42;0;0;
69123;PMS5003;56232;53.384;-2.732;2023-12-28T13:16:08;0;0;
69123;PMS5003;56232;53.384;-2.732;2023-12-28T13:18:33;0;0;
69123;PMS5003;56232;53.384;-2.732;2023-12-28T13:20:59;0;0;
69123;PMS5003;56232;53.384;-2.732;2023-12-28T13:23:25;0;0;
69123;PMS5003;56232;53.384;-2.732;2023-12-28T13:25:50;0;0;
69123;PMS5003;56232;53.384;-2.732;2023-12-28T13:28:16;0;0;
69123;PMS5003;56232;53.384;-2.732;2023-12-28T13:30:42;3;2;
69123;PMS5003;56232;53.384;-2.732;2023-12-28T13:33:07;2;2;
69123;PMS5003;56232;53.384;-2.732;2023-12-28T13:35:33;2;2;
69123;PMS5003;56232;53.384;-2.732;2023-12-28T13:37:58;12;5;
69123;PMS5003;56232;53.384;-2.732;2023-12-28T13:40:24;3;3;
69123;PMS5003;56232;53.384;-2.732;2023-12-28T13:42:54;8;5;
69123;PMS5003;56232;53.384;-2.732;2023-12-28T13:45:15;6;3;
69123;PMS5003;56232;53.384;-2.732;2023-12-28T13:47:41;6;3;
69123;PMS5003;56232;53.384;-2.732;2023-12-28T13:50:07;1;1;
69123;PMS5003;56232;53.384;-2.732;2023-12-28T13:52:32;6;5;
69123;PMS5003;56232;53.384;-2.732;2023-12-28T13:54:57;6;4;
69123;PMS5003;56232;53.384;-2.732;2023-12-28T13:57:23;3;2;
69123;PMS5003;56232;53.384;-2.732;2023-12-28T13:59:49;3;3;
69123;PMS5003;56232;53.384;-2.732;2023-12-28T14:02:14;5;3;
69123;PMS5003;56232;53.384;-2.732;2023-12-28T14:04:39;5;3;
69123;PMS5003;56232;53.384;-2.732;2023-12-28T14:07:05;2;1;
69123;PMS5003;56232;53.384;-2.732;2023-12-28T14:09:30;3;2;
69123;PMS5003;56232;53.384;-2.732;2023-12-28T14:11:56;0;0;
69123;PMS5003;56232;53.384;-2.732;2023-12-28T14:14:22;1;0;
69123;PMS5003;56232;53.384;-2.732;2023-12-28T14:16:47;4;2;
69123;PMS5003;56232;53.384;-2.732;2023-12-28T14:19:12;6;2;
69123;PMS5003;56232;53.384;-2.732;2023-12-28T14:21:38;3;2;
69123;PMS5003;56232;53.384;-2.732;2023-12-28T14:24:04;4;2;
69123;PMS5003;56232;53.384;-2.732;2023-12-28T14:26:29;2;2;
69123;PMS5003;56232;53.384;-2.732;2023-12-28T14:28:55;2;2;
69123;PMS5003;56232;53.384;-2.732;2023-12-28T14:31:21;0;0;
69123;PMS5003;56232;53.384;-2.732;2023-12-28T14:33:46;3;3;
69123;PMS5003;56232;53.384;-2.732;2023-12-28T14:36:14;4;3;
69123;PMS5003;56232;53.384;-2.732;2023-12-28T14:38:37;1;1;
69123;PMS5003;56232;53.384;-2.732;2023-12-28T14:41:03;2;2;
69123;PMS5003;56232;53.384;-2.732;2023-12-28T14:43:28;1;1;
69123;PMS5003;56232;53.384;-2.732;2023-12-28T14:45:54;1;1;
69123;PMS5003;56232;53.384;-2.732;2023-12-28T14:48:20;2;1;
69123;PMS5003;56232;53.384;-2.732;2023-12-28T14:50:45;1;1;
69123;PMS5003;56232;53.384;-2.732;2023-12-28T14:53:11;1;1;
69123;PMS5003;56232;53.384;-2.732;2023-12-28T14:55:37;0;0;
69123;PMS5003;56232;53.384;-2.732;2023-12-28T14:58:02;5;3;
69123;PMS5003;56232;53.384;-2.732;2023-12-28T15:00:28;2;1;
69123;PMS5003;56232;53.384;-2.732;2023-12-28T15:02:54;2;2;
69123;PMS5003;56232;53.384;-2.732;2023-12-28T15:05:19;1;1;
69123;PMS5003;56232;53.384;-2.732;2023-12-28T15:07:46;1;1;
69123;PMS5003;56232;53.384;-2.732;2023-12-28T15:10:11;1;1;
69123;PMS5003;56232;53.384;-2.732;2023-12-28T15:12:37;0;0;
69123;PMS5003;56232;53.384;-2.732;2023-12-28T15:15:03;2;1;
69123;PMS5003;56232;53.384;-2.732;2023-12-28T15:17:28;0;0;
69123;PMS5003;56232;53.384;-2.732;2023-12-28T15:19:54;1;1;
69123;PMS5003;56232;53.384;-2.732;2023-12-28T15:22:19;3;3;
69123;PMS5003;56232;53.384;-2.732;2023-12-28T15:24:45;2;2;
69123;PMS5003;56232;53.384;-2.732;2023-12-28T15:27:10;7;4;
69123;PMS5003;56232;53.384;-2.732;2023-12-28T15:29:35;4;3;
69123;PMS5003;56232;53.384;-2.732;2023-12-28T15:32:00;3;2;
69123;PMS5003;56232;53.384;-2.732;2023-12-28T15:34:26;3;3;
69123;PMS5003;56232;53.384;-2.732;2023-12-28T15:36:52;4;3;
69123;PMS5003;56232;53.384;-2.732;2023-12-28T15:39:18;3;3;
69123;PMS5003;56232;53.384;-2.732;2023-12-28T15:41:44;4;4;
69123;PMS5003;56232;53.384;-2.732;2023-12-28T15:44:09;4;3;
69123;PMS5003;56232;53.384;-2.732;2023-12-28T15:46:34;4;2;
69123;PMS5003;56232;53.384;-2.732;2023-12-28T15:49:00;3;3;
69123;PMS5003;56232;53.384;-2.732;2023-12-28T15:51:26;7;5;
69123;PMS5003;56232;53.384;-2.732;2023-12-28T15:53:51;5;4;
69123;PMS5003;56232;53.384;-2.732;2023-12-28T15:56:17;4;3;
69123;PMS5003;56232;53.384;-2.732;2023-12-28T15:58:47;4;3;
69123;PMS5003;56232;53.384;-2.732;2023-12-28T16:01:08;5;3;
69123;PMS5003;56232;53.384;-2.732;2023-12-28T16:03:33;4;3;
69123;PMS5003;56232;53.384;-2.732;2023-12-28T16:05:59;5;3;
69123;PMS5003;56232;53.384;-2.732;2023-12-28T16:08:25;6;5;
69123;PMS5003;56232;53.384;-2.732;2023-12-28T16:10:50;3;3;
69123;PMS5003;56232;53.384;-2.732;2023-12-28T16:13:16;6;5;
69123;PMS5003;56232;53.384;-2.732;2023-12-28T16:15:41;5;4;
69123;PMS5003;56232;53.384;-2.732;2023-12-28T16:18:07;4;3;
69123;PMS5003;56232;53.384;-2.732;2023-12-28T16:20:32;6;6;
69123;PMS5003;56232;53.384;-2.732;2023-12-28T16:22:58;7;5;
69123;PMS5003;56232;53.384;-2.732;2023-12-28T16:25:23;7;7;
69123;PMS5003;56232;53.384;-2.732;2023-12-28T16:27:49;5;5;
69123;PMS5003;56232;53.384;-2.732;2023-12-28T16:30:15;5;4;
69123;PMS5003;56232;53.384;-2.732;2023-12-28T16:32:40;11;7;